Terminal Aerodrome Forecast
Issued by NWS Wilmington, OH

Current Version | Previous Version | Graphics & Text | Print | Product List | Glossary On
Versions: 1 2 3 4 5 6 7 8 9 10 11 12 13 14 15 16 17 18 19 20 21
000
FTUS41 KILN 200544 AAD
TAFILN
TAF AMD
KILN 200544Z 2006/2106 00000KT 3SM BR SCT120
      TEMPO 2007/2009 1 1/2SM BR BKN003
     FM200900 VRB03KT 1/2SM FG BKN003
     FM201300 22005KT 4SM BR BKN010
     FM201400 23005KT P6SM SCT025
     FM201700 25006KT P6SM BKN035
     FM210500 VRB03KT 5SM BR SCT250=

USA.gov is the U.S. government's official web portal to all federal, state and local government web resources and services.